createdAt,value
2023-05-10T00:00:30.527Z,2.40
2023-05-10T00:03:33.674Z,2.60
2023-05-10T00:06:36.670Z,2.50
2023-05-10T00:09:39.680Z,2.55
2023-05-10T00:12:42.835Z,2.87
2023-05-10T00:15:45.844Z,3.30
2023-05-10T00:18:48.817Z,2.80
2023-05-10T00:21:51.801Z,3.38
2023-05-10T00:24:54.776Z,3.38
2023-05-10T00:27:58.336Z,3.23
2023-05-10T00:31:01.367Z,2.92
2023-05-10T00:34:06.499Z,3.03
2023-05-10T00:37:09.561Z,3.10
2023-05-10T00:40:12.887Z,2.85
2023-05-10T00:43:16.900Z,3.60
2023-05-10T00:46:20.015Z,2.88
2023-05-10T00:49:22.987Z,3.10
2023-05-10T00:52:27.048Z,2.75
2023-05-10T00:55:29.993Z,3.00
2023-05-10T00:58:32.940Z,3.07
2023-05-10T01:01:37.049Z,3.05
2023-05-10T01:04:40.490Z,2.88
2023-05-10T01:07:43.466Z,2.90
2023-05-10T01:10:46.707Z,3.40
2023-05-10T01:13:53.737Z,2.80
2023-05-10T01:16:56.713Z,2.80
2023-05-10T01:19:59.681Z,2.65
2023-05-10T01:23:05.654Z,2.67
2023-05-10T01:26:29.388Z,2.90
2023-05-10T01:30:15.364Z,3.93
2023-05-10T01:33:26.944Z,3.35
2023-05-10T01:36:40.526Z,3.30
2023-05-10T01:39:53.213Z,6.10
2023-05-10T01:43:01.074Z,3.97
2023-05-10T01:46:17.788Z,3.23
2023-05-10T01:49:32.227Z,2.95
2023-05-10T01:52:38.850Z,2.80
2023-05-10T01:55:47.290Z,3.25
2023-05-10T01:58:50.340Z,3.15
2023-05-10T02:01:53.314Z,2.80
2023-05-10T02:04:56.483Z,3.20
2023-05-10T02:08:00.155Z,3.00
2023-05-10T02:11:03.346Z,2.47
2023-05-10T02:14:08.966Z,2.95
2023-05-10T02:17:12.109Z,3.23
2023-05-10T02:20:15.348Z,3.35
2023-05-10T02:23:18.652Z,3.30
2023-05-10T02:26:22.274Z,2.95
2023-05-10T02:29:25.891Z,3.20
2023-05-10T02:32:28.929Z,3.20
2023-05-10T02:35:34.500Z,3.08
2023-05-10T02:38:38.453Z,3.22
2023-05-10T02:41:43.675Z,3.70
2023-05-10T02:44:48.842Z,3.22
2023-05-10T02:47:52.043Z,2.87
2023-05-10T02:50:55.857Z,3.28
2023-05-10T02:53:58.751Z,2.80
2023-05-10T02:57:03.987Z,3.30
2023-05-10T03:00:07.660Z,3.20
2023-05-10T03:03:10.692Z,3.33
2023-05-10T03:06:14.047Z,3.40
2023-05-10T03:09:17.365Z,3.10
2023-05-10T03:12:43.714Z,3.33
2023-05-10T03:16:17.508Z,3.60
2023-05-10T03:19:28.689Z,3.03
2023-05-10T03:22:41.986Z,3.38
2023-05-10T03:25:45.302Z,3.47
2023-05-10T03:28:48.614Z,3.85
2023-05-10T03:31:51.876Z,3.90
2023-05-10T03:34:55.341Z,3.90
2023-05-10T03:37:58.575Z,3.42
2023-05-10T03:41:01.595Z,3.72
2023-05-10T03:44:04.709Z,3.75
2023-05-10T03:47:07.737Z,3.70
2023-05-10T03:50:11.442Z,4.93
2023-05-10T03:53:14.482Z,4.45
2023-05-10T03:56:17.411Z,4.20
2023-05-10T03:59:22.104Z,3.95
2023-05-10T04:02:25.270Z,3.95
2023-05-10T04:05:28.806Z,3.90
2023-05-10T04:08:32.238Z,3.72
2023-05-10T04:11:35.229Z,4.03
2023-05-10T04:14:38.364Z,4.10
2023-05-10T04:17:41.331Z,4.00
2023-05-10T04:20:44.331Z,4.13
2023-05-10T04:23:47.311Z,4.43
2023-05-10T04:26:50.256Z,4.75
2023-05-10T04:29:53.165Z,5.07
2023-05-10T04:32:56.159Z,4.85
2023-05-10T04:35:59.287Z,5.93
2023-05-10T04:39:03.864Z,4.97
2023-05-10T04:42:06.809Z,4.18
2023-05-10T04:45:10.751Z,4.28
2023-05-10T04:48:14.101Z,4.30
2023-05-10T04:51:17.029Z,4.43
2023-05-10T04:54:20.036Z,3.92
2023-05-10T04:57:23.122Z,4.85
2023-05-10T05:00:26.219Z,4.30
2023-05-10T05:03:29.294Z,7.95
2023-05-10T05:06:32.292Z,5.60
2023-05-10T05:09:35.582Z,5.07
2023-05-10T05:12:38.577Z,4.28
2023-05-10T05:15:41.558Z,5.00
2023-05-10T05:18:44.536Z,4.03
2023-05-10T05:21:47.537Z,4.33
2023-05-10T05:24:50.668Z,4.18
2023-05-10T05:27:53.642Z,4.53
2023-05-10T05:30:58.982Z,4.65
2023-05-10T05:34:02.005Z,4.70
2023-05-10T05:37:04.997Z,4.63
2023-05-10T05:40:08.627Z,4.90
2023-05-10T05:43:11.594Z,4.30
2023-05-10T05:46:14.660Z,4.60
2023-05-10T05:49:17.691Z,4.78
2023-05-10T05:52:20.669Z,4.73
2023-05-10T05:55:25.213Z,4.78
2023-05-10T05:58:38.815Z,4.55
2023-05-10T06:01:42.227Z,4.78
2023-05-10T06:04:45.333Z,5.20
2023-05-10T06:07:50.543Z,4.37
2023-05-10T06:11:11.366Z,5.15
2023-05-10T06:14:21.623Z,4.88
2023-05-10T06:17:28.397Z,4.53
2023-05-10T06:20:37.240Z,4.80
2023-05-10T06:23:40.554Z,5.00
2023-05-10T06:26:43.530Z,5.22
2023-05-10T06:29:47.038Z,4.35
2023-05-10T06:32:50.117Z,4.80
2023-05-10T06:35:53.360Z,4.95
2023-05-10T06:38:56.399Z,4.90
2023-05-10T06:41:59.763Z,4.80
2023-05-10T06:45:10.224Z,4.82
2023-05-10T06:48:13.285Z,4.55
2023-05-10T06:51:16.310Z,5.00
2023-05-10T06:54:19.823Z,4.43
2023-05-10T06:57:31.323Z,5.10
2023-05-10T07:00:35.837Z,4.82
2023-05-10T07:03:43.011Z,4.80
2023-05-10T07:06:50.916Z,4.65
2023-05-10T07:09:54.144Z,4.23
2023-05-10T07:12:57.503Z,4.78
2023-05-10T07:16:04.014Z,4.93
2023-05-10T07:19:07.031Z,4.53
2023-05-10T07:22:10.257Z,4.63
2023-05-10T07:25:13.753Z,4.73
2023-05-10T07:28:17.374Z,4.45
2023-05-10T07:31:20.754Z,5.10
2023-05-10T07:34:23.944Z,3.83
2023-05-10T07:37:27.112Z,4.40
2023-05-10T07:40:30.162Z,4.20
2023-05-10T07:43:33.160Z,4.15
2023-05-10T07:46:36.107Z,4.57
2023-05-10T07:49:39.396Z,4.20
2023-05-10T07:52:42.790Z,4.20
2023-05-10T07:55:57.997Z,4.70
2023-05-10T07:59:06.141Z,4.25
2023-05-10T08:02:12.363Z,4.68
2023-05-10T08:05:16.380Z,4.10
2023-05-10T08:08:21.059Z,3.92
2023-05-10T08:11:24.177Z,4.20
2023-05-10T08:14:29.033Z,4.13
2023-05-10T08:17:32.323Z,4.43
2023-05-10T08:20:35.547Z,4.72
2023-05-10T08:23:39.115Z,4.70
2023-05-10T08:26:42.196Z,3.70
2023-05-10T08:29:50.151Z,3.30
2023-05-10T08:32:53.736Z,4.10
2023-05-10T08:35:56.779Z,4.28
2023-05-10T08:38:59.733Z,4.20
2023-05-10T08:42:04.444Z,4.20
2023-05-10T08:45:10.973Z,4.20
2023-05-10T08:48:14.833Z,4.38
2023-05-10T08:51:26.443Z,4.15
2023-05-10T08:54:29.641Z,4.00
2023-05-10T08:57:32.856Z,4.33
2023-05-10T09:00:36.307Z,4.15
2023-05-10T09:03:41.450Z,4.55
2023-05-10T09:06:44.720Z,3.60
2023-05-10T09:09:48.216Z,3.97
2023-05-10T09:12:53.849Z,4.63
2023-05-10T09:16:00.275Z,4.07
2023-05-10T09:19:05.505Z,4.03
2023-05-10T09:22:11.496Z,3.90
2023-05-10T09:25:16.226Z,4.70
2023-05-10T09:28:22.464Z,3.67
2023-05-10T09:31:28.424Z,3.78
2023-05-10T09:34:32.965Z,3.70
2023-05-10T09:37:36.040Z,3.72
2023-05-10T09:40:39.084Z,3.88
2023-05-10T09:43:42.097Z,4.00
2023-05-10T09:46:49.475Z,3.63
2023-05-10T09:49:52.647Z,3.38
2023-05-10T09:53:00.300Z,3.67
2023-05-10T09:56:03.627Z,3.88
2023-05-10T09:59:07.555Z,4.37
2023-05-10T10:02:10.831Z,3.83
2023-05-10T10:05:13.853Z,3.97
2023-05-10T10:08:17.894Z,3.72
2023-05-10T10:11:20.896Z,3.75
2023-05-10T10:14:27.702Z,3.50
2023-05-10T10:17:30.745Z,4.10
2023-05-10T10:20:33.758Z,4.22
2023-05-10T10:23:37.007Z,3.22
2023-05-10T10:26:39.983Z,4.05
2023-05-10T10:30:05.780Z,3.73
2023-05-10T10:33:40.111Z,4.30
2023-05-10T10:36:52.383Z,4.25
2023-05-10T10:39:56.359Z,3.25
2023-05-10T10:42:59.610Z,3.60
2023-05-10T10:46:15.425Z,3.70
2023-05-10T10:49:18.574Z,3.70
2023-05-10T10:52:32.323Z,3.90
2023-05-10T10:55:35.547Z,3.50
2023-05-10T10:58:41.972Z,4.20
2023-05-10T11:01:47.566Z,3.27
2023-05-10T11:04:50.733Z,3.40
2023-05-10T11:07:55.970Z,3.15
2023-05-10T11:11:02.098Z,3.50
2023-05-10T11:14:06.719Z,5.10
2023-05-10T11:17:32.721Z,4.67
2023-05-10T11:20:41.701Z,3.17
2023-05-10T11:23:52.685Z,3.20
2023-05-10T11:26:58.669Z,3.40
2023-05-10T11:30:03.759Z,3.70
2023-05-10T11:33:19.089Z,3.13
2023-05-10T11:36:29.256Z,2.78
2023-05-10T11:39:32.824Z,2.88
2023-05-10T11:42:35.892Z,2.70
2023-05-10T11:45:38.900Z,2.92
2023-05-10T11:48:42.028Z,2.53
2023-05-10T11:51:45.023Z,2.95
2023-05-10T11:54:54.860Z,4.45
2023-05-10T11:58:01.788Z,4.07
2023-05-10T12:01:06.119Z,3.13
2023-05-10T12:04:09.239Z,3.60
2023-05-10T12:07:12.290Z,4.13
2023-05-10T12:10:19.212Z,4.80
2023-05-10T12:13:22.686Z,4.55
2023-05-10T12:16:27.042Z,3.60
2023-05-10T12:19:31.182Z,4.83
2023-05-10T12:22:35.969Z,5.10
2023-05-10T12:25:39.770Z,2.85
2023-05-10T12:28:42.763Z,2.90
2023-05-10T12:31:56.112Z,2.90
2023-05-10T12:34:59.177Z,2.73
2023-05-10T12:38:02.105Z,3.10
2023-05-10T12:41:06.313Z,3.50
2023-05-10T12:44:09.285Z,3.00
2023-05-10T12:47:12.405Z,3.00
2023-05-10T12:50:15.761Z,3.43
2023-05-10T12:53:18.922Z,2.72
2023-05-10T12:56:21.922Z,2.60
2023-05-10T12:59:24.914Z,3.20
2023-05-10T13:02:27.939Z,2.45
2023-05-10T13:05:31.042Z,2.40
2023-05-10T13:08:34.778Z,2.55
2023-05-10T13:11:37.856Z,2.95
2023-05-10T13:14:41.663Z,2.75
2023-05-10T13:17:46.361Z,2.97
2023-05-10T13:20:50.641Z,3.10
2023-05-10T13:23:54.018Z,2.80
2023-05-10T13:26:57.051Z,2.70
2023-05-10T13:30:00.433Z,3.00
2023-05-10T13:33:03.383Z,2.85
2023-05-10T13:36:07.252Z,2.50
2023-05-10T13:39:10.426Z,2.63
2023-05-10T13:42:13.412Z,2.97
2023-05-10T13:45:17.259Z,2.83
2023-05-10T13:48:20.500Z,3.10
2023-05-10T13:51:23.905Z,2.50
2023-05-10T13:54:30.436Z,2.42
2023-05-10T13:57:35.492Z,2.50
2023-05-10T14:00:38.472Z,2.90
2023-05-10T14:03:41.609Z,2.20
2023-05-10T14:06:44.650Z,2.43
2023-05-10T14:09:47.600Z,2.40
2023-05-10T14:12:51.231Z,2.55
2023-05-10T14:15:54.854Z,2.55
2023-05-10T14:18:57.880Z,2.47
2023-05-10T14:22:01.022Z,2.37
2023-05-10T14:25:04.161Z,2.70
2023-05-10T14:28:07.190Z,2.80
2023-05-10T14:31:10.204Z,2.53
2023-05-10T14:34:13.141Z,2.20
2023-05-10T14:37:17.013Z,2.47
2023-05-10T14:40:20.063Z,2.30
2023-05-10T14:43:22.991Z,2.20
2023-05-10T14:46:27.162Z,2.25
2023-05-10T14:49:30.294Z,1.95
2023-05-10T14:52:34.366Z,1.97
2023-05-10T14:55:37.971Z,1.90
2023-05-10T14:58:40.958Z,1.75
2023-05-10T15:01:44.139Z,2.10
2023-05-10T15:04:47.624Z,2.10
2023-05-10T15:07:51.357Z,1.83
2023-05-10T15:10:56.429Z,1.95
2023-05-10T15:13:59.425Z,2.30
2023-05-10T15:17:02.368Z,2.05
2023-05-10T15:20:05.751Z,1.98
2023-05-10T15:23:08.832Z,1.90
2023-05-10T15:26:11.842Z,2.10
2023-05-10T15:29:20.892Z,2.30
2023-05-10T15:32:23.940Z,2.10
2023-05-10T15:35:27.954Z,2.15
2023-05-10T15:38:30.904Z,2.30
2023-05-10T15:41:33.868Z,2.50
2023-05-10T15:44:39.385Z,2.47
2023-05-10T15:47:42.423Z,2.28
2023-05-10T15:50:45.919Z,2.60
2023-05-10T15:54:05.366Z,2.83
2023-05-10T15:57:09.369Z,2.67
2023-05-10T16:00:13.051Z,2.90
2023-05-10T16:03:16.450Z,2.35
2023-05-10T16:06:19.432Z,2.92
2023-05-10T16:09:23.563Z,2.60
2023-05-10T16:12:26.648Z,2.70
2023-05-10T16:15:29.688Z,3.10
2023-05-10T16:18:32.823Z,2.60
2023-05-10T16:21:35.952Z,2.75
2023-05-10T16:24:38.928Z,3.40
2023-05-10T16:27:43.179Z,2.63
2023-05-10T16:30:47.481Z,2.58
2023-05-10T16:33:50.458Z,2.60
2023-05-10T16:36:53.387Z,2.75
2023-05-10T16:39:56.350Z,2.50
2023-05-10T16:42:59.256Z,2.50
2023-05-10T16:46:04.565Z,2.80
2023-05-10T16:49:09.006Z,3.05
2023-05-10T16:52:11.970Z,2.90
2023-05-10T16:55:15.055Z,2.67
2023-05-10T16:58:18.102Z,2.45
2023-05-10T17:01:22.011Z,2.92
2023-05-10T17:04:25.882Z,2.60
2023-05-10T17:07:29.491Z,2.53
2023-05-10T17:10:32.500Z,2.20
2023-05-10T17:13:35.460Z,2.78
2023-05-10T17:16:38.561Z,2.80
2023-05-10T17:19:44.926Z,2.03
2023-05-10T17:22:48.321Z,2.13
2023-05-10T17:25:51.232Z,2.30
2023-05-10T17:28:55.125Z,2.05
2023-05-10T17:31:58.631Z,1.90
2023-05-10T17:35:02.924Z,2.15
2023-05-10T17:38:05.850Z,1.98
2023-05-10T17:41:08.954Z,2.20
2023-05-10T17:44:13.434Z,2.38
2023-05-10T17:47:17.162Z,2.30
2023-05-10T17:50:20.200Z,1.80
2023-05-10T17:53:23.180Z,2.00
2023-05-10T17:56:26.211Z,2.20
2023-05-10T17:59:29.254Z,2.30
2023-05-10T18:02:32.703Z,2.42
2023-05-10T18:05:39.331Z,2.38
2023-05-10T18:08:42.573Z,2.42
2023-05-10T18:11:45.616Z,2.13
2023-05-10T18:14:48.583Z,2.25
2023-05-10T18:17:51.536Z,2.30
2023-05-10T18:20:57.746Z,2.40
2023-05-10T18:24:00.828Z,2.47
2023-05-10T18:27:03.923Z,3.00
2023-05-10T18:30:09.744Z,2.70
2023-05-10T18:33:12.767Z,3.35
2023-05-10T18:36:15.800Z,2.55
2023-05-10T18:39:19.017Z,2.78
2023-05-10T18:42:22.042Z,2.47
2023-05-10T18:45:25.029Z,2.55
2023-05-10T18:48:28.101Z,2.88
2023-05-10T18:51:31.636Z,3.00
2023-05-10T18:54:35.018Z,3.20
2023-05-10T18:57:41.470Z,2.50
2023-05-10T19:00:44.689Z,2.78
2023-05-10T19:03:47.670Z,2.95
2023-05-10T19:06:50.649Z,2.47
2023-05-10T19:09:53.592Z,2.55
2023-05-10T19:12:57.374Z,2.37
2023-05-10T19:16:10.176Z,2.80
2023-05-10T19:19:13.266Z,2.80
2023-05-10T19:22:16.252Z,2.67
2023-05-10T19:25:20.286Z,2.60
2023-05-10T19:28:23.392Z,2.30
2023-05-10T19:31:26.629Z,2.58
2023-05-10T19:34:30.980Z,2.10
2023-05-10T19:37:33.944Z,2.30
2023-05-10T19:40:36.943Z,2.15
2023-05-10T19:43:39.965Z,2.03
2023-05-10T19:46:42.998Z,2.33
2023-05-10T19:49:46.075Z,2.28
2023-05-10T19:52:49.574Z,1.85
2023-05-10T19:55:52.504Z,2.20
2023-05-10T19:58:55.509Z,2.50
2023-05-10T20:01:58.441Z,2.10
2023-05-10T20:05:01.346Z,2.20
2023-05-10T20:08:04.311Z,2.55
2023-05-10T20:11:07.287Z,2.25
2023-05-10T20:14:10.232Z,2.10
2023-05-10T20:17:13.185Z,2.38
2023-05-10T20:20:16.768Z,2.42
2023-05-10T20:23:19.890Z,2.70
2023-05-10T20:26:22.831Z,2.33
2023-05-10T20:29:25.805Z,2.30
2023-05-10T20:32:28.828Z,2.22
2023-05-10T20:35:32.197Z,2.35
2023-05-10T20:38:35.451Z,2.42
2023-05-10T20:41:39.261Z,2.67
2023-05-10T20:44:42.203Z,3.87
2023-05-10T20:47:45.228Z,4.53
2023-05-10T20:50:48.215Z,3.35
2023-05-10T20:53:51.153Z,2.70
2023-05-10T20:56:54.313Z,2.40
2023-05-10T20:59:57.614Z,2.60
2023-05-10T21:03:00.673Z,2.30
2023-05-10T21:06:03.703Z,2.65
2023-05-10T21:09:07.240Z,2.25
2023-05-10T21:12:10.320Z,2.30
2023-05-10T21:15:13.294Z,2.57
2023-05-10T21:18:16.470Z,2.53
2023-05-10T21:21:19.420Z,2.70
2023-05-10T21:24:23.280Z,2.60
2023-05-10T21:27:26.200Z,2.65
2023-05-10T21:30:29.161Z,3.23
2023-05-10T21:33:32.141Z,2.72
2023-05-10T21:36:35.162Z,2.80
2023-05-10T21:39:38.091Z,2.85
2023-05-10T21:42:41.055Z,2.28
2023-05-10T21:45:44.022Z,2.50
2023-05-10T21:48:46.974Z,2.55
2023-05-10T21:51:49.948Z,2.50
2023-05-10T21:54:52.867Z,2.63
2023-05-10T21:57:55.837Z,2.63
2023-05-10T22:00:58.921Z,2.53
2023-05-10T22:04:01.881Z,2.45
2023-05-10T22:07:04.852Z,2.75
2023-05-10T22:10:09.176Z,2.30
2023-05-10T22:13:12.122Z,2.40
2023-05-10T22:16:15.207Z,2.37
2023-05-10T22:19:18.196Z,2.80
2023-05-10T22:22:22.459Z,2.30
2023-05-10T22:25:25.460Z,2.10
2023-05-10T22:28:28.686Z,2.20
2023-05-10T22:31:31.739Z,2.00
2023-05-10T22:34:35.773Z,2.20
2023-05-10T22:37:38.778Z,2.60
2023-05-10T22:40:42.525Z,2.13
2023-05-10T22:43:45.624Z,2.10
2023-05-10T22:46:48.592Z,2.30
2023-05-10T22:49:51.857Z,2.40
2023-05-10T22:52:54.785Z,2.72
2023-05-10T22:55:57.750Z,2.22
2023-05-10T22:59:00.686Z,2.38
2023-05-10T23:02:03.643Z,2.30
2023-05-10T23:05:07.612Z,2.28
2023-05-10T23:08:11.482Z,2.35
2023-05-10T23:11:14.553Z,2.22
2023-05-10T23:14:17.521Z,2.17
2023-05-10T23:17:20.598Z,2.27
2023-05-10T23:20:23.528Z,2.17
2023-05-10T23:23:26.480Z,1.75
2023-05-10T23:26:29.472Z,2.03
2023-05-10T23:29:33.125Z,2.30
2023-05-10T23:32:36.505Z,2.33
2023-05-10T23:35:39.496Z,1.92
2023-05-10T23:38:42.505Z,2.15
2023-05-10T23:41:45.463Z,2.20
2023-05-10T23:44:48.482Z,2.20
2023-05-10T23:47:52.767Z,2.30
2023-05-10T23:50:55.974Z,2.50
2023-05-10T23:53:59.263Z,2.15
2023-05-10T23:57:03.327Z,1.92
